<?xml version="1.0" encoding="UTF-8" standalone="no" ?>
<gpx xmlns="http://www.topografix.com/GPX/1/1" xmlns:xsi="http://www.w3.org/2001/XMLSchema-instance" xsi:schemaLocation="http://www.topografix.com/GPX/1/1 http://www.topografix.com/GPX/1/1/gpx.xsd" version="1.1" creator="VisuGPX - https://www.visugpx.com">
  <metadata>
    <name>luzech 6 descentes</name>
    <desc><![CDATA[parcours typé enduro avec de belles descentes]]></desc>
  </metadata>
  <trk>
    <name><![CDATA[2014-04-01-08-18-57]]></name>
    <trkseg>
      <trkpt lat="44.44927" lon="1.30066">
        <ele>128.705</ele>
        <time>2014-04-01T11:02:32Z</time>
      </trkpt>
      <trkpt lat="44.44929" lon="1.30072">
        <ele>126.873</ele>
        <time>2014-04-01T11:02:35Z</time>
      </trkpt>
      <trkpt lat="44.44926" lon="1.30078">
        <ele>125.525</ele>
        <time>2014-04-01T11:02:40Z</time>
      </trkpt>
      <trkpt lat="44.44909" lon="1.30091">
        <ele>126.106</ele>
        <time>2014-04-01T11:02:49Z</time>
      </trkpt>
      <trkpt lat="44.44894" lon="1.30105">
        <ele>127.877</ele>
        <time>2014-04-01T11:02:56Z</time>
      </trkpt>
      <trkpt lat="44.44881" lon="1.3012">
        <ele>128.887</ele>
        <time>2014-04-01T11:03:03Z</time>
      </trkpt>
      <trkpt lat="44.44863" lon="1.30141">
        <ele>130.146</ele>
        <time>2014-04-01T11:03:12Z</time>
      </trkpt>
      <trkpt lat="44.44849" lon="1.30157">
        <ele>130.456</ele>
        <time>2014-04-01T11:03:18Z</time>
      </trkpt>
      <trkpt lat="44.44835" lon="1.30175">
        <ele>132.276</ele>
        <time>2014-04-01T11:03:25Z</time>
      </trkpt>
      <trkpt lat="44.44822" lon="1.30195">
        <ele>132.726</ele>
        <time>2014-04-01T11:03:32Z</time>
      </trkpt>
      <trkpt lat="44.44807" lon="1.30221">
        <ele>133.816</ele>
        <time>2014-04-01T11:03:41Z</time>
      </trkpt>
      <trkpt lat="44.44796" lon="1.30241">
        <ele>134.116</ele>
        <time>2014-04-01T11:03:48Z</time>
      </trkpt>
      <trkpt lat="44.44778" lon="1.30275">
        <ele>134.506</ele>
        <time>2014-04-01T11:03:59Z</time>
      </trkpt>
      <trkpt lat="44.44767" lon="1.30297">
        <ele>134.776</ele>
        <time>2014-04-01T11:04:06Z</time>
      </trkpt>
      <trkpt lat="44.44757" lon="1.30321">
        <ele>134.295</ele>
        <time>2014-04-01T11:04:13Z</time>
      </trkpt>
      <trkpt lat="44.44744" lon="1.3035">
        <ele>135.666</ele>
        <time>2014-04-01T11:04:21Z</time>
      </trkpt>
      <trkpt lat="44.44732" lon="1.30379">
        <ele>137.086</ele>
        <time>2014-04-01T11:04:29Z</time>
      </trkpt>
      <trkpt lat="44.44723" lon="1.30405">
        <ele>137.846</ele>
        <time>2014-04-01T11:04:36Z</time>
      </trkpt>
      <trkpt lat="44.44714" lon="1.30428">
        <ele>138.856</ele>
        <time>2014-04-01T11:04:42Z</time>
      </trkpt>
      <trkpt lat="44.44707" lon="1.30451">
        <ele>139.687</ele>
        <time>2014-04-01T11:04:48Z</time>
      </trkpt>
      <trkpt lat="44.44698" lon="1.30479">
        <ele>140.737</ele>
        <time>2014-04-01T11:04:55Z</time>
      </trkpt>
      <trkpt lat="44.44691" lon="1.30497">
        <ele>142.498</ele>
        <time>2014-04-01T11:05:00Z</time>
      </trkpt>
      <trkpt lat="44.44681" lon="1.30526">
        <ele>145.398</ele>
        <time>2014-04-01T11:05:08Z</time>
      </trkpt>
      <trkpt lat="44.44674" lon="1.30551">
        <ele>145.357</ele>
        <time>2014-04-01T11:05:15Z</time>
      </trkpt>
      <trkpt lat="44.44673" lon="1.30554">
        <ele>144.736</ele>
        <time>2014-04-01T11:05:18Z</time>
      </trkpt>
    </trkseg>
  </trk>
</gpx>